createdAt,value
2022-08-07T00:01:44.755Z,54.20
2022-08-07T00:04:03.415Z,54.40
2022-08-07T00:06:33.517Z,54.60
2022-08-07T00:09:16.087Z,54.80
2022-08-07T00:11:47.938Z,55.00
2022-08-07T00:14:29.869Z,55.20
2022-08-07T00:16:58.533Z,55.40
2022-08-07T00:19:26.063Z,55.30
2022-08-07T00:22:02.209Z,55.40
2022-08-07T00:24:31.569Z,55.60
2022-08-07T00:27:07.661Z,55.90
2022-08-07T00:29:37.219Z,56.10
2022-08-07T00:32:06.807Z,56.30
2022-08-07T00:34:35.635Z,56.60
2022-08-07T00:37:04.948Z,56.80
2022-08-07T00:39:35.593Z,57.00
2022-08-07T00:42:05.328Z,57.10
2022-08-07T00:44:33.793Z,57.30
2022-08-07T00:47:06.518Z,57.50
2022-08-07T00:50:19.096Z,57.70
2022-08-07T00:52:33.214Z,57.80
2022-08-07T00:55:04.950Z,58.00
2022-08-07T00:57:37.827Z,58.10
2022-08-07T01:00:15.968Z,58.40
2022-08-07T01:02:43.609Z,58.50
2022-08-07T01:05:19.086Z,58.70
2022-08-07T01:07:48.263Z,58.90
2022-08-07T01:10:18.344Z,59.00
2022-08-07T01:12:54.030Z,59.20
2022-08-07T01:15:22.783Z,59.40
2022-08-07T01:18:03.173Z,59.60
2022-08-07T01:20:34.217Z,59.60
2022-08-07T01:23:12.978Z,59.90
2022-08-07T01:25:55.311Z,60.00
2022-08-07T01:28:23.561Z,60.30
2022-08-07T01:30:52.030Z,60.40
2022-08-07T01:33:19.236Z,60.60
2022-08-07T01:35:53.360Z,60.90
2022-08-07T01:38:25.167Z,61.10
2022-08-07T01:41:00.617Z,61.30
2022-08-07T01:43:34.656Z,61.40
2022-08-07T01:46:05.718Z,61.60
2022-08-07T01:48:35.799Z,61.70
2022-08-07T01:52:02.832Z,61.90
2022-08-07T01:54:09.365Z,62.00
2022-08-07T01:56:53.703Z,62.20
2022-08-07T01:59:30.890Z,62.50
2022-08-07T02:02:12.127Z,62.60
2022-08-07T02:05:04.662Z,62.60
2022-08-07T02:07:36.166Z,62.70
2022-08-07T02:10:14.395Z,62.90
2022-08-07T02:12:42.428Z,63.00
2022-08-07T02:15:13.877Z,63.30
2022-08-07T02:17:41.357Z,63.40
2022-08-07T02:20:23.298Z,63.50
2022-08-07T02:22:54.791Z,63.70
2022-08-07T02:25:22.013Z,63.80
2022-08-07T02:28:08.872Z,64.00
2022-08-07T02:30:38.682Z,64.10
2022-08-07T02:33:09.395Z,64.30
2022-08-07T02:36:29.970Z,64.50
2022-08-07T02:38:31.649Z,64.60
2022-08-07T02:40:59.515Z,64.80
2022-08-07T02:43:27.987Z,64.90
2022-08-07T02:45:58.938Z,65.10
2022-08-07T02:48:28.238Z,65.20
2022-08-07T02:50:55.784Z,65.30
2022-08-07T02:53:38.295Z,65.50
2022-08-07T02:56:12.879Z,65.60
2022-08-07T02:58:47.307Z,65.80
2022-08-07T03:01:18.463Z,65.90
2022-08-07T03:03:50.606Z,66.00
2022-08-07T03:06:25.642Z,66.20
2022-08-07T03:09:00.906Z,66.40
2022-08-07T03:11:28.427Z,66.40
2022-08-07T03:13:57.484Z,66.50
2022-08-07T03:16:28.472Z,66.60
2022-08-07T03:18:58.418Z,66.70
2022-08-07T03:21:25.599Z,66.80
2022-08-07T03:24:20.116Z,67.00
2022-08-07T03:26:50.898Z,67.20
2022-08-07T03:29:20.548Z,67.30
2022-08-07T03:31:50.062Z,67.40
2022-08-07T03:34:18.702Z,67.50
2022-08-07T03:36:50.162Z,67.70
2022-08-07T03:39:17.634Z,67.80
2022-08-07T03:42:05.496Z,67.90
2022-08-07T03:44:34.662Z,68.10
2022-08-07T03:47:13.187Z,68.30
2022-08-07T03:49:51.927Z,68.40
2022-08-07T03:52:26.390Z,68.40
2022-08-07T03:55:07.019Z,68.60
2022-08-07T03:58:35.501Z,68.90
2022-08-07T04:00:30.482Z,68.80
2022-08-07T04:03:04.041Z,68.90
2022-08-07T04:05:40.443Z,69.00
2022-08-07T04:08:13.011Z,69.00
2022-08-07T04:10:54.353Z,69.20
2022-08-07T04:14:10.347Z,69.20
2022-08-07T04:16:31.597Z,69.30
2022-08-07T04:19:03.859Z,69.40
2022-08-07T04:21:39.977Z,69.50
2022-08-07T04:24:34.300Z,69.70
2022-08-07T04:27:06.056Z,70.40
2022-08-07T04:29:58.212Z,69.90
2022-08-07T04:32:34.057Z,70.00
2022-08-07T04:35:05.354Z,70.10
2022-08-07T04:37:40.331Z,70.10
2022-08-07T04:40:19.947Z,70.10
2022-08-07T04:42:46.950Z,70.10
2022-08-07T04:45:57.639Z,70.20
2022-08-07T04:48:13.065Z,70.20
2022-08-07T04:50:45.426Z,70.30
2022-08-07T04:54:01.661Z,70.40
2022-08-07T04:58:16.379Z,70.60
2022-08-07T05:00:11.220Z,70.60
2022-08-07T05:02:54.415Z,70.50
2022-08-07T05:05:53.113Z,70.60
2022-08-07T05:09:02.336Z,70.70
2022-08-07T05:11:57.231Z,70.70
2022-08-07T05:14:56.079Z,70.70
2022-08-07T05:17:51.466Z,70.70
2022-08-07T05:20:19.211Z,70.50
2022-08-07T05:22:48.862Z,70.60
2022-08-07T05:25:25.945Z,70.60
2022-08-07T05:28:20.031Z,70.70
2022-08-07T05:30:48.293Z,70.60
2022-08-07T05:33:15.299Z,70.50
2022-08-07T05:35:45.436Z,70.50
2022-08-07T05:38:58.435Z,70.60
2022-08-07T05:41:02.528Z,70.60
2022-08-07T05:44:08.506Z,70.50
2022-08-07T05:46:26.851Z,70.40
2022-08-07T05:48:59.299Z,70.40
2022-08-07T05:51:31.587Z,70.40
2022-08-07T05:54:09.727Z,70.40
2022-08-07T05:56:51.477Z,70.30
2022-08-07T05:59:19.389Z,70.30
2022-08-07T06:01:48.554Z,70.90
2022-08-07T06:04:17.336Z,70.20
2022-08-07T06:06:46.153Z,70.20
2022-08-07T06:09:15.644Z,70.20
2022-08-07T06:11:42.583Z,70.10
2022-08-07T06:14:12.257Z,70.00
2022-08-07T06:16:41.018Z,69.90
2022-08-07T06:19:07.944Z,69.80
2022-08-07T06:22:14.841Z,69.70
2022-08-07T06:24:38.095Z,69.50
2022-08-07T06:27:44.003Z,69.40
2022-08-07T06:30:32.226Z,69.20
2022-08-07T06:32:59.556Z,68.90
2022-08-07T06:35:39.087Z,68.70
2022-08-07T06:38:20.044Z,68.60
2022-08-07T06:40:50.533Z,68.40
2022-08-07T06:43:21.182Z,68.20
2022-08-07T06:45:49.342Z,68.00
2022-08-07T06:48:16.329Z,67.80
2022-08-07T06:50:53.231Z,67.60
2022-08-07T06:55:28.604Z,67.40
2022-08-07T06:56:15.126Z,67.30
2022-08-07T07:00:14.592Z,67.00
2022-08-07T07:01:33.329Z,66.80
2022-08-07T07:04:28.342Z,66.60
2022-08-07T07:07:01.370Z,66.30
2022-08-07T07:09:31.834Z,66.10
2022-08-07T07:12:18.094Z,66.00
2022-08-07T07:14:48.787Z,65.80
2022-08-07T07:17:45.413Z,65.50
2022-08-07T07:20:20.690Z,65.20
2022-08-07T07:24:09.519Z,65.00
2022-08-07T07:26:35.418Z,64.80
2022-08-07T07:28:48.521Z,64.70
2022-08-07T07:31:44.466Z,64.60
2022-08-07T07:34:18.432Z,64.40
2022-08-07T07:36:48.041Z,64.10
2022-08-07T07:39:22.193Z,64.00
2022-08-07T07:42:08.679Z,63.90
2022-08-07T07:44:40.420Z,63.80
2022-08-07T07:47:15.714Z,63.70
2022-08-07T07:50:35.484Z,63.50
2022-08-07T07:52:37.119Z,63.20
2022-08-07T07:55:04.422Z,63.10
2022-08-07T07:57:43.971Z,62.90
2022-08-07T08:00:29.118Z,62.80
2022-08-07T08:04:09.642Z,62.60
2022-08-07T08:06:03.920Z,62.50
2022-08-07T08:08:37.042Z,62.30
2022-08-07T08:11:08.422Z,62.30
2022-08-07T08:13:53.197Z,62.10
2022-08-07T08:16:35.606Z,62.00
2022-08-07T08:19:09.834Z,61.80
2022-08-07T08:22:07.848Z,61.70
2022-08-07T08:25:18.872Z,61.60
2022-08-07T08:27:56.604Z,61.40
2022-08-07T08:30:25.056Z,61.30
2022-08-07T08:32:53.709Z,61.20
2022-08-07T08:35:23.574Z,61.10
2022-08-07T08:38:01.266Z,61.00
2022-08-07T08:40:38.254Z,60.80
2022-08-07T08:43:21.391Z,60.70
2022-08-07T08:46:09.878Z,60.40
2022-08-07T08:48:54.223Z,60.30
2022-08-07T08:51:49.667Z,60.20
2022-08-07T08:54:24.211Z,60.10
2022-08-07T08:56:52.867Z,59.70
2022-08-07T08:59:28.547Z,59.60
2022-08-07T09:02:14.331Z,59.40
2022-08-07T09:04:57.586Z,59.10
2022-08-07T09:07:58.159Z,59.00
2022-08-07T09:10:44.301Z,58.70
2022-08-07T09:13:38.279Z,58.40
2022-08-07T09:16:29.827Z,57.90
2022-08-07T09:19:27.114Z,57.70
2022-08-07T09:22:22.873Z,57.40
2022-08-07T09:25:14.626Z,57.00
2022-08-07T09:28:03.594Z,56.80
2022-08-07T09:30:52.870Z,56.50
2022-08-07T09:33:56.705Z,56.10
2022-08-07T09:36:46.646Z,55.80
2022-08-07T09:39:54.474Z,55.40
2022-08-07T09:42:29.237Z,55.00
2022-08-07T09:47:26.193Z,54.40
2022-08-07T09:48:14.348Z,53.70
2022-08-07T09:51:14.614Z,53.10
2022-08-07T09:54:03.266Z,52.40
2022-08-07T09:56:52.095Z,52.00
2022-08-07T09:59:46.168Z,51.00
2022-08-07T10:02:55.093Z,50.40
2022-08-07T10:05:59.560Z,49.80
2022-08-07T10:08:59.062Z,49.10
2022-08-07T10:12:02.249Z,48.60
2022-08-07T10:14:54.210Z,48.10
2022-08-07T10:18:26.522Z,47.70
2022-08-07T10:21:19.580Z,47.10
2022-08-07T10:24:05.046Z,46.80
2022-08-07T10:27:13.864Z,46.50
2022-08-07T10:30:04.479Z,46.00
2022-08-07T10:32:53.830Z,45.60
2022-08-07T10:35:57.530Z,45.10
2022-08-07T10:38:35.682Z,44.70
2022-08-07T10:41:46.396Z,45.10
2022-08-07T10:44:39.039Z,44.60
2022-08-07T10:47:52.701Z,44.00
2022-08-07T10:50:25.863Z,43.50
2022-08-07T10:52:56.630Z,43.80
2022-08-07T10:55:37.990Z,43.50
2022-08-07T10:58:33.030Z,43.10
2022-08-07T11:01:35.556Z,42.70
2022-08-07T11:04:34.912Z,42.60
2022-08-07T11:07:58.879Z,42.30
2022-08-07T11:10:41.671Z,41.90
2022-08-07T11:14:44.214Z,41.20
2022-08-07T11:16:19.919Z,40.80
2022-08-07T11:18:52.303Z,40.80
2022-08-07T11:21:42.748Z,40.30
2022-08-07T11:24:26.235Z,39.70
2022-08-07T11:27:07.656Z,39.30
2022-08-07T11:30:17.720Z,39.10
2022-08-07T11:32:53.555Z,38.70
2022-08-07T11:35:35.143Z,38.40
2022-08-07T11:38:37.271Z,37.80
2022-08-07T11:41:18.192Z,37.60
2022-08-07T11:44:11.875Z,37.30
2022-08-07T11:46:57.987Z,36.80
2022-08-07T11:50:11.459Z,36.50
2022-08-07T11:52:37.895Z,36.50
2022-08-07T11:55:18.707Z,36.20
2022-08-07T11:58:33.146Z,35.50
2022-08-07T12:02:00.493Z,35.00
2022-08-07T12:04:46.112Z,34.80
2022-08-07T12:07:38.643Z,34.60
2022-08-07T12:10:09.210Z,34.50
2022-08-07T12:12:53.657Z,35.00
2022-08-07T12:15:46.412Z,34.40
2022-08-07T12:18:29.682Z,34.10
2022-08-07T12:22:35.986Z,33.80
2022-08-07T12:24:37.515Z,33.70
2022-08-07T12:27:05.291Z,33.50
2022-08-07T12:29:51.765Z,33.20
2022-08-07T12:32:50.288Z,33.40
2022-08-07T12:35:18.049Z,32.70
2022-08-07T12:38:09.739Z,32.60
2022-08-07T12:40:47.551Z,32.40
2022-08-07T12:44:01.562Z,32.20
2022-08-07T12:46:10.543Z,32.20
2022-08-07T12:49:10.038Z,32.50
2022-08-07T12:52:23.311Z,32.30
2022-08-07T12:55:05.676Z,32.00
2022-08-07T12:58:00.179Z,31.80
2022-08-07T13:00:50.329Z,31.90
2022-08-07T13:03:59.303Z,32.40
2022-08-07T13:07:01.267Z,31.70
2022-08-07T13:10:22.029Z,31.70
2022-08-07T13:12:58.501Z,31.90
2022-08-07T13:15:44.565Z,31.70
2022-08-07T13:18:26.324Z,31.30
2022-08-07T13:21:50.275Z,31.40
2022-08-07T13:24:30.826Z,31.30
2022-08-07T13:28:11.504Z,31.10
2022-08-07T13:30:40.401Z,31.10
2022-08-07T13:34:31.450Z,31.50
2022-08-07T13:36:26.247Z,31.60
2022-08-07T13:39:13.162Z,31.30
2022-08-07T13:41:54.997Z,31.10
2022-08-07T13:44:26.415Z,31.20
2022-08-07T13:46:56.876Z,30.90
2022-08-07T13:50:34.066Z,30.80
2022-08-07T13:52:33.526Z,30.80
2022-08-07T13:54:59.146Z,30.70
2022-08-07T13:57:38.123Z,30.90
2022-08-07T14:00:08.137Z,30.80
2022-08-07T14:02:55.430Z,30.70
2022-08-07T14:05:29.081Z,30.70
2022-08-07T14:08:05.299Z,30.50
2022-08-07T14:10:42.198Z,30.30
2022-08-07T14:13:16.123Z,30.00
2022-08-07T14:15:44.342Z,30.00
2022-08-07T14:18:33.879Z,30.10
2022-08-07T14:21:20.944Z,30.80
2022-08-07T14:24:08.642Z,30.20
2022-08-07T14:27:16.142Z,30.10
2022-08-07T14:30:06.276Z,30.30
2022-08-07T14:32:47.907Z,30.40
2022-08-07T14:35:45.760Z,30.50
2022-08-07T14:38:26.615Z,30.30
2022-08-07T14:41:04.213Z,30.20
2022-08-07T14:46:30.551Z,30.30
2022-08-07T14:48:59.174Z,30.20
2022-08-07T14:52:03.759Z,30.30
2022-08-07T14:54:34.586Z,30.30
2022-08-07T14:57:04.142Z,30.30
2022-08-07T15:00:06.125Z,30.40
2022-08-07T15:02:32.963Z,30.50
2022-08-07T15:05:01.663Z,30.60
2022-08-07T15:07:50.998Z,30.80
2022-08-07T15:10:26.556Z,30.80
2022-08-07T15:16:00.299Z,30.80
2022-08-07T15:18:36.214Z,30.90
2022-08-07T15:21:43.984Z,31.20
2022-08-07T15:25:15.913Z,31.10
2022-08-07T15:26:59.480Z,30.80
2022-08-07T15:30:08.800Z,30.60
2022-08-07T15:32:39.450Z,30.60
2022-08-07T15:35:17.034Z,30.60
2022-08-07T15:40:34.341Z,30.60
2022-08-07T15:43:53.605Z,30.40
2022-08-07T15:46:04.506Z,30.60
2022-08-07T15:54:20.079Z,31.70
2022-08-07T15:56:48.287Z,32.20
2022-08-07T15:59:17.331Z,32.50
2022-08-07T16:02:01.656Z,32.80
2022-08-07T16:04:30.395Z,32.90
2022-08-07T16:07:00.574Z,33.10
2022-08-07T16:09:47.249Z,33.10
2022-08-07T16:12:31.621Z,33.30
2022-08-07T16:15:03.078Z,33.40
2022-08-07T16:18:02.421Z,33.40
2022-08-07T16:20:37.426Z,33.50
2022-08-07T16:23:53.753Z,33.50
2022-08-07T16:26:30.914Z,33.60
2022-08-07T16:30:07.580Z,33.60
2022-08-07T16:32:34.638Z,33.50
2022-08-07T16:35:57.046Z,33.30
2022-08-07T16:39:00.674Z,33.00
2022-08-07T16:41:41.434Z,32.80
2022-08-07T16:44:53.830Z,32.80
2022-08-07T16:47:56.402Z,32.50
2022-08-07T16:50:36.945Z,32.30
2022-08-07T16:54:01.738Z,32.10
2022-08-07T16:56:19.641Z,32.20
2022-08-07T16:59:17.253Z,32.20
2022-08-07T17:02:02.925Z,32.20
2022-08-07T17:04:50.824Z,32.20
2022-08-07T17:07:51.468Z,32.00
2022-08-07T17:10:54.284Z,31.70
2022-08-07T17:13:41.652Z,31.70
2022-08-07T17:16:43.707Z,32.60
2022-08-07T17:20:00.306Z,32.00
2022-08-07T17:22:15.554Z,32.00
2022-08-07T17:24:52.223Z,31.80
2022-08-07T17:27:32.585Z,31.80
2022-08-07T17:30:14.101Z,31.70
2022-08-07T17:33:39.145Z,31.90
2022-08-07T17:36:21.133Z,31.90
2022-08-07T17:39:15.704Z,31.90
2022-08-07T17:42:06.469Z,32.00
2022-08-07T17:44:50.649Z,32.00
2022-08-07T17:47:42.282Z,32.10
2022-08-07T17:50:30.275Z,32.10
2022-08-07T17:53:06.033Z,32.40
2022-08-07T17:56:01.172Z,32.70
2022-08-07T17:58:40.562Z,33.00
2022-08-07T18:01:36.583Z,32.90
2022-08-07T18:04:35.091Z,33.10
2022-08-07T18:07:20.130Z,33.10
2022-08-07T18:10:07.391Z,33.10
2022-08-07T18:13:09.592Z,33.10
2022-08-07T18:16:12.955Z,33.20
2022-08-07T18:21:08.957Z,33.20
2022-08-07T18:22:00.417Z,33.30
2022-08-07T18:24:35.509Z,33.90
2022-08-07T18:27:17.335Z,33.30
2022-08-07T18:30:06.480Z,33.40
2022-08-07T18:32:46.311Z,33.40
2022-08-07T18:35:52.059Z,33.50
2022-08-07T18:38:56.457Z,33.40
2022-08-07T18:42:00.600Z,33.50
2022-08-07T18:45:44.620Z,33.60
2022-08-07T18:48:05.738Z,33.70
2022-08-07T18:50:45.986Z,33.70
2022-08-07T18:53:16.612Z,33.70
2022-08-07T18:56:06.113Z,33.70
2022-08-07T18:58:52.304Z,33.60
2022-08-07T19:02:20.082Z,33.50
2022-08-07T19:05:15.600Z,33.50
2022-08-07T19:07:58.809Z,33.40
2022-08-07T19:10:31.322Z,33.60
2022-08-07T19:13:11.725Z,33.70
2022-08-07T19:16:05.756Z,33.90
2022-08-07T19:18:46.508Z,34.00
2022-08-07T19:21:51.198Z,34.10
2022-08-07T19:24:30.713Z,34.30
2022-08-07T19:28:30.911Z,34.40
2022-08-07T19:31:05.261Z,34.60
2022-08-07T19:32:44.578Z,34.70
2022-08-07T19:35:22.521Z,34.80
2022-08-07T19:37:57.212Z,35.00
2022-08-07T19:40:31.307Z,35.10
2022-08-07T19:43:08.736Z,35.20
2022-08-07T19:46:07.204Z,35.40
2022-08-07T19:48:42.937Z,35.50
2022-08-07T19:51:19.944Z,35.70
2022-08-07T19:54:31.283Z,35.80
2022-08-07T19:58:04.126Z,36.00
2022-08-07T19:59:39.822Z,36.10
2022-08-07T20:02:18.885Z,36.30
2022-08-07T20:04:49.360Z,36.40
2022-08-07T20:07:23.966Z,36.60
2022-08-07T20:10:35.848Z,36.80
2022-08-07T20:12:52.165Z,36.90
2022-08-07T20:15:22.342Z,37.10
2022-08-07T20:17:56.339Z,37.30
2022-08-07T20:20:30.400Z,37.50
2022-08-07T20:23:00.181Z,37.60
2022-08-07T20:25:28.335Z,37.80
2022-08-07T20:27:58.885Z,37.90
2022-08-07T20:30:34.788Z,38.10
2022-08-07T20:33:03.104Z,38.20
2022-08-07T20:35:51.826Z,38.30
2022-08-07T20:38:21.674Z,38.40
2022-08-07T20:40:56.659Z,38.50
2022-08-07T20:43:26.785Z,38.70
2022-08-07T20:46:26.776Z,39.00
2022-08-07T20:48:58.012Z,39.10
2022-08-07T20:51:29.879Z,39.30
2022-08-07T20:54:03.344Z,39.50
2022-08-07T20:56:40.873Z,39.70
2022-08-07T21:00:05.012Z,40.00
2022-08-07T21:02:01.646Z,40.30
2022-08-07T21:04:29.414Z,40.60
2022-08-07T21:07:04.376Z,41.00
2022-08-07T21:09:53.222Z,41.40
2022-08-07T21:12:30.678Z,41.80
2022-08-07T21:14:59.598Z,42.20
2022-08-07T21:18:03.269Z,42.60
2022-08-07T21:20:19.068Z,42.90
2022-08-07T21:22:58.248Z,43.20
2022-08-07T21:25:42.672Z,43.50
2022-08-07T21:28:48.516Z,44.00
2022-08-07T21:31:49.826Z,44.40
2022-08-07T21:34:20.471Z,44.50
2022-08-07T21:37:21.282Z,44.80
2022-08-07T21:40:03.339Z,45.10
2022-08-07T21:42:48.489Z,45.50
2022-08-07T21:46:11.288Z,45.70
2022-08-07T21:48:29.092Z,46.10
2022-08-07T21:51:32.533Z,46.30
2022-08-07T21:54:11.410Z,46.60
2022-08-07T21:56:59.803Z,46.90
2022-08-07T21:59:26.934Z,47.20
2022-08-07T22:02:07.647Z,47.40
2022-08-07T22:04:51.114Z,47.90
2022-08-07T22:07:31.921Z,47.90
2022-08-07T22:10:24.641Z,48.30
2022-08-07T22:12:54.109Z,48.40
2022-08-07T22:16:42.500Z,48.50
2022-08-07T22:18:37.563Z,48.80
2022-08-07T22:21:19.207Z,49.00
2022-08-07T22:24:09.784Z,49.00
2022-08-07T22:26:44.600Z,49.20
2022-08-07T22:29:48.114Z,49.30
2022-08-07T22:32:42.140Z,49.40
2022-08-07T22:35:11.240Z,49.60
2022-08-07T22:38:04.489Z,49.70
2022-08-07T22:40:53.333Z,50.00
2022-08-07T22:43:50.328Z,50.20
2022-08-07T22:47:01.905Z,50.50
2022-08-07T22:49:33.901Z,50.60
2022-08-07T22:52:37.934Z,50.80
2022-08-07T22:55:45.274Z,51.10
2022-08-07T22:58:15.509Z,51.30
2022-08-07T23:01:05.477Z,51.40
2022-08-07T23:03:57.532Z,51.80
2022-08-07T23:06:52.502Z,51.90
2022-08-07T23:10:06.251Z,52.20
2022-08-07T23:12:34.332Z,52.30
2022-08-07T23:16:05.785Z,52.60
2022-08-07T23:19:13.805Z,53.10
2022-08-07T23:21:55.167Z,53.30
2022-08-07T23:24:45.670Z,53.60
2022-08-07T23:28:21.757Z,53.80
2022-08-07T23:31:11.592Z,54.10
2022-08-07T23:34:34.244Z,54.30
2022-08-07T23:37:19.329Z,54.50
2022-08-07T23:40:25.215Z,54.70
2022-08-07T23:42:58.264Z,55.00
2022-08-07T23:46:10.663Z,55.20
2022-08-07T23:48:58.579Z,54.80
2022-08-07T23:53:05.675Z,55.70
2022-08-07T23:54:52.825Z,55.90
2022-08-07T23:57:48.748Z,56.30
